Time;durP1;ratioP1;P1;durP2;ratioP2;P2;SDS_P1;SDS_P2;PMS_P1;PMS_P2;Temp;Humidity;BMP_temperature;BMP_pressure;BME280_temperature;BME280_humidity;BME280_pressure;Samples;Min_cycle;Max_cycle;Signal;HPM_P1;HPM_P2
2023/09/29 00:00:51;;;;;;;49.10;29.42;;;;;;;;;;5070409;28;20460;-71
2023/09/29 00:03:17;;;;;;;42.60;29.33;;;;;;;;;;5070657;28;20048;-70
2023/09/29 00:05:45;;;;;;;43.65;30.10;;;;;;;;;;5073327;28;20027;-70
2023/09/29 00:08:16;;;;;;;43.42;29.48;;;;;;;;;;5073530;28;20037;-70
2023/09/29 00:10:41;;;;;;;41.65;28.30;;;;;;;;;;5069069;28;20056;-70
2023/09/29 00:13:06;;;;;;;39.75;28.30;;;;;;;;;;5069632;28;20059;-71
2023/09/29 00:15:33;;;;;;;44.67;28.25;;;;;;;;;;5070024;28;20055;-70
2023/09/29 00:17:58;;;;;;;44.30;28.15;;;;;;;;;;5069503;28;20021;-70
2023/09/29 00:20:24;;;;;;;40.28;27.70;;;;;;;;;;5074079;28;20406;-70
2023/09/29 00:22:53;;;;;;;40.90;27.42;;;;;;;;;;5076813;28;20039;-71
2023/09/29 00:25:19;;;;;;;45.15;27.98;;;;;;;;;;5076869;28;20013;-71
2023/09/29 00:27:44;;;;;;;42.90;28.17;;;;;;;;;;5076528;28;20073;-71
2023/09/29 00:30:12;;;;;;;43.20;28.20;;;;;;;;;;5077105;28;20062;-71
2023/09/29 00:32:48;;;;;;;41.35;29.33;;;;;;;;;;5076705;28;20016;-71
2023/09/29 00:35:19;;;;;;;46.50;29.05;;;;;;;;;;5074057;28;20028;-70
2023/09/29 00:37:44;;;;;;;41.28;28.60;;;;;;;;;;5076867;28;20070;-69
2023/09/29 00:40:13;;;;;;;45.83;29.13;;;;;;;;;;5077763;28;20020;-70
2023/09/29 00:42:39;;;;;;;40.42;28.65;;;;;;;;;;5076994;28;20495;-65
2023/09/29 00:45:04;;;;;;;48.60;30.15;;;;;;;;;;5092194;28;20031;-65
2023/09/29 00:47:29;;;;;;;47.88;30.70;;;;;;;;;;5075239;28;20021;-65
2023/09/29 00:49:55;;;;;;;51.33;30.98;;;;;;;;;;5072733;28;20024;-66
2023/09/29 00:52:23;;;;;;;46.17;30.98;;;;;;;;;;5071675;28;20025;-65
2023/09/29 00:54:50;;;;;;;47.35;29.73;;;;;;;;;;5075181;28;20034;-66
2023/09/29 00:57:16;;;;;;;48.78;31.20;;;;;;;;;;5075794;28;20020;-66
2023/09/29 00:59:42;;;;;;;45.90;30.40;;;;;;;;;;5074977;28;20023;-66
2023/09/29 01:02:09;;;;;;;50.65;31.50;;;;;;;;;;5087612;28;20387;-65
2023/09/29 01:04:34;;;;;;;50.10;31.40;;;;;;;;;;5083133;28;20048;-65
2023/09/29 01:07:00;;;;;;;48.90;31.50;;;;;;;;;;5073641;28;20056;-66
2023/09/29 01:09:25;;;;;;;51.95;32.08;;;;;;;;;;5068901;28;20021;-66
2023/09/29 01:11:52;;;;;;;50.97;31.25;;;;;;;;;;5073865;28;20036;-65
2023/09/29 01:14:17;;;;;;;49.25;32.35;;;;;;;;;;5076000;28;20027;-66
2023/09/29 01:16:42;;;;;;;48.05;31.15;;;;;;;;;;5073794;28;20032;-66
2023/09/29 01:19:11;;;;;;;48.60;31.13;;;;;;;;;;5073631;28;20024;-65
2023/09/29 01:21:37;;;;;;;47.92;29.98;;;;;;;;;;5076116;28;20419;-66
2023/09/29 01:24:02;;;;;;;51.38;32.00;;;;;;;;;;5075778;28;20016;-66
2023/09/29 01:26:28;;;;;;;44.58;28.52;;;;;;;;;;5075301;28;20017;-66
2023/09/29 01:28:53;;;;;;;44.78;29.52;;;;;;;;;;5075121;28;20017;-65
2023/09/29 01:31:18;;;;;;;45.50;30.05;;;;;;;;;;5075681;28;20020;-65
2023/09/29 01:33:44;;;;;;;46.13;29.35;;;;;;;;;;5075661;28;20100;-66
2023/09/29 01:36:10;;;;;;;46.33;31.05;;;;;;;;;;5076031;28;20119;-66
2023/09/29 01:38:35;;;;;;;51.08;31.25;;;;;;;;;;5075616;28;20012;-65
2023/09/29 01:41:00;;;;;;;53.55;32.13;;;;;;;;;;5075826;28;20067;-65
2023/09/29 01:43:26;;;;;;;47.08;31.08;;;;;;;;;;5075498;28;20031;-65
2023/09/29 01:45:51;;;;;;;44.88;30.15;;;;;;;;;;5082722;28;20020;-66
2023/09/29 01:48:16;;;;;;;53.15;31.45;;;;;;;;;;5078253;28;20024;-67
2023/09/29 01:50:42;;;;;;;56.20;31.00;;;;;;;;;;5075709;28;20062;-66
2023/09/29 01:53:07;;;;;;;47.83;30.67;;;;;;;;;;5074821;28;20021;-66
2023/09/29 01:55:32;;;;;;;49.15;30.15;;;;;;;;;;5074741;28;20023;-66
2023/09/29 01:57:57;;;;;;;45.13;29.98;;;;;;;;;;5073593;28;20084;-65
2023/09/29 02:00:28;;;;;;;44.25;29.33;;;;;;;;;;5073955;28;20480;-66
2023/09/29 02:02:54;;;;;;;52.85;31.27;;;;;;;;;;5074324;28;20009;-65
2023/09/29 02:05:20;;;;;;;46.58;29.30;;;;;;;;;;5071596;28;20098;-66
2023/09/29 02:07:46;;;;;;;46.00;30.55;;;;;;;;;;5071231;28;20020;-66
2023/09/29 02:10:11;;;;;;;44.42;29.42;;;;;;;;;;5075121;28;20046;-65
2023/09/29 02:12:57;;;;;;;42.90;29.08;;;;;;;;;;5074099;28;20021;-65
2023/09/29 02:15:22;;;;;;;43.80;28.63;;;;;;;;;;5073882;28;20055;-65
2023/09/29 02:17:50;;;;;;;43.72;28.20;;;;;;;;;;5074681;28;20540;-65
2023/09/29 02:20:21;;;;;;;43.33;29.13;;;;;;;;;;5072111;28;20423;-65
2023/09/29 02:22:47;;;;;;;47.05;29.35;;;;;;;;;;5073582;28;20425;-66
2023/09/29 02:25:15;;;;;;;47.83;30.58;;;;;;;;;;5074847;28;20024;-65
2023/09/29 02:27:40;;;;;;;43.22;28.15;;;;;;;;;;5074686;28;20020;-65
2023/09/29 02:30:08;;;;;;;44.47;28.70;;;;;;;;;;5074899;28;20096;-65
2023/09/29 02:32:34;;;;;;;46.13;28.73;;;;;;;;;;5074570;28;20020;-65
2023/09/29 02:34:59;;;;;;;45.10;28.75;;;;;;;;;;5072651;28;20081;-66
2023/09/29 02:37:25;;;;;;;44.35;28.33;;;;;;;;;;5069863;28;20029;-64
2023/09/29 02:39:50;;;;;;;45.72;28.25;;;;;;;;;;5067678;28;20044;-65
2023/09/29 02:42:17;;;;;;;46.45;29.17;;;;;;;;;;5073354;28;20026;-65
2023/09/29 02:44:42;;;;;;;44.45;29.75;;;;;;;;;;5074295;28;20396;-65
2023/09/29 02:47:08;;;;;;;44.30;28.02;;;;;;;;;;5074241;28;20095;-64
2023/09/29 02:49:33;;;;;;;42.20;28.50;;;;;;;;;;5093070;28;20045;-65
2023/09/29 02:51:59;;;;;;;45.28;29.63;;;;;;;;;;5084477;28;20025;-65
2023/09/29 02:54:25;;;;;;;47.70;28.65;;;;;;;;;;5071922;28;20074;-66
2023/09/29 02:56:50;;;;;;;43.47;29.05;;;;;;;;;;5072284;28;20020;-65
2023/09/29 02:59:16;;;;;;;48.72;29.95;;;;;;;;;;5074046;28;20095;-65
2023/09/29 03:01:44;;;;;;;49.75;29.73;;;;;;;;;;5055976;28;20417;-65
2023/09/29 03:04:09;;;;;;;46.80;29.77;;;;;;;;;;5092872;28;20052;-64
2023/09/29 03:06:35;;;;;;;48.97;28.90;;;;;;;;;;5092781;28;20019;-65
2023/09/29 03:09:01;;;;;;;43.40;29.20;;;;;;;;;;5089125;28;20027;-66
2023/09/29 03:11:26;;;;;;;47.83;31.10;;;;;;;;;;5069726;28;20023;-66
2023/09/29 03:13:55;;;;;;;43.60;29.17;;;;;;;;;;5073266;28;20027;-65
2023/09/29 03:16:21;;;;;;;42.15;29.38;;;;;;;;;;5070238;28;20139;-64
2023/09/29 03:18:46;;;;;;;52.25;31.05;;;;;;;;;;5073648;28;20043;-65
2023/09/29 03:21:11;;;;;;;44.90;30.23;;;;;;;;;;5073766;28;20021;-65
2023/09/29 03:23:37;;;;;;;45.85;29.48;;;;;;;;;;5084028;28;20475;-64
2023/09/29 03:26:02;;;;;;;45.20;29.67;;;;;;;;;;5092722;28;20012;-65
2023/09/29 03:28:27;;;;;;;50.30;30.83;;;;;;;;;;5092625;28;20020;-65
2023/09/29 03:30:53;;;;;;;47.17;30.02;;;;;;;;;;5085267;28;20020;-64
2023/09/29 03:33:18;;;;;;;47.80;29.60;;;;;;;;;;5073610;28;20041;-64
2023/09/29 03:35:45;;;;;;;46.80;29.92;;;;;;;;;;5073667;28;20020;-64
2023/09/29 03:38:10;;;;;;;48.78;30.70;;;;;;;;;;5069553;28;20013;-65
2023/09/29 03:40:36;;;;;;;47.17;30.58;;;;;;;;;;5075850;28;20043;-65
2023/09/29 03:43:01;;;;;;;47.05;29.90;;;;;;;;;;5092133;28;20115;-65
2023/09/29 03:45:27;;;;;;;56.08;32.22;;;;;;;;;;5091011;28;20031;-66
2023/09/29 03:47:52;;;;;;;49.25;31.10;;;;;;;;;;5073162;28;20099;-64
2023/09/29 03:50:17;;;;;;;48.30;31.15;;;;;;;;;;5073086;28;20062;-65
2023/09/29 03:52:44;;;;;;;52.47;31.58;;;;;;;;;;5073227;28;20028;-65
2023/09/29 03:55:10;;;;;;;54.17;32.50;;;;;;;;;;5077621;28;20028;-65
2023/09/29 03:57:38;;;;;;;52.83;33.03;;;;;;;;;;5072201;28;20369;-64
2023/09/29 04:00:14;;;;;;;59.03;33.53;;;;;;;;;;5072848;28;20017;-65
2023/09/29 04:02:40;;;;;;;57.08;33.90;;;;;;;;;;5082708;28;20016;-65
2023/09/29 04:05:05;;;;;;;62.67;34.55;;;;;;;;;;5091549;28;20067;-65
2023/09/29 04:07:30;;;;;;;61.15;34.72;;;;;;;;;;5091141;28;20020;-64
2023/09/29 04:09:56;;;;;;;57.00;35.72;;;;;;;;;;5091953;28;20012;-65
2023/09/29 04:12:21;;;;;;;61.47;35.78;;;;;;;;;;5092160;28;20073;-64
2023/09/29 04:14:46;;;;;;;60.15;35.65;;;;;;;;;;5091686;28;20057;-66
2023/09/29 04:17:13;;;;;;;65.70;36.78;;;;;;;;;;5072357;28;20021;-64
2023/09/29 04:19:38;;;;;;;64.30;36.30;;;;;;;;;;5073596;28;20017;-64
2023/09/29 04:22:04;;;;;;;71.40;37.25;;;;;;;;;;5073016;28;20164;-65
2023/09/29 04:24:29;;;;;;;64.90;36.35;;;;;;;;;;5072147;28;20028;-65
2023/09/29 04:26:55;;;;;;;64.32;37.22;;;;;;;;;;5084903;28;20016;-65
2023/09/29 04:29:20;;;;;;;68.80;36.45;;;;;;;;;;5068797;28;20465;-65
2023/09/29 04:31:46;;;;;;;67.05;38.35;;;;;;;;;;5069051;28;20031;-65
2023/09/29 04:34:11;;;;;;;65.40;36.25;;;;;;;;;;5072825;28;20019;-65
2023/09/29 04:36:36;;;;;;;66.05;36.50;;;;;;;;;;5069113;28;20115;-65
2023/09/29 04:39:02;;;;;;;65.50;36.83;;;;;;;;;;5072624;28;20101;-66
2023/09/29 04:41:27;;;;;;;61.13;35.17;;;;;;;;;;5072670;28;20055;-66
2023/09/29 04:43:52;;;;;;;66.22;35.50;;;;;;;;;;5071904;28;20139;-65
2023/09/29 04:46:18;;;;;;;58.83;34.80;;;;;;;;;;5066751;28;20021;-65
2023/09/29 04:48:43;;;;;;;62.65;34.95;;;;;;;;;;5071925;28;20024;-66
2023/09/29 04:51:08;;;;;;;61.05;35.25;;;;;;;;;;5072885;28;20116;-66
2023/09/29 04:53:33;;;;;;;63.55;34.00;;;;;;;;;;5074350;28;20017;-65
2023/09/29 04:55:59;;;;;;;57.03;34.10;;;;;;;;;;5091670;28;20047;-65
2023/09/29 04:58:24;;;;;;;51.42;31.92;;;;;;;;;;5074704;28;20475;-66
2023/09/29 05:00:50;;;;;;;52.17;31.48;;;;;;;;;;5072440;28;20047;-67
2023/09/29 05:03:15;;;;;;;50.33;31.20;;;;;;;;;;5068983;28;20029;-66
2023/09/29 05:05:41;;;;;;;55.40;30.90;;;;;;;;;;5071689;28;20095;-66
2023/09/29 05:08:07;;;;;;;47.58;30.75;;;;;;;;;;5074381;28;20055;-66
2023/09/29 05:10:33;;;;;;;48.03;28.38;;;;;;;;;;5075943;28;20150;-66
2023/09/29 05:12:58;;;;;;;46.78;29.05;;;;;;;;;;5080011;28;20062;-65
2023/09/29 05:15:23;;;;;;;48.78;28.67;;;;;;;;;;5083043;28;20110;-67
2023/09/29 05:17:48;;;;;;;46.28;28.13;;;;;;;;;;5077989;28;20021;-65
2023/09/29 05:20:14;;;;;;;43.15;27.38;;;;;;;;;;5093767;28;20345;-65
2023/09/29 05:22:39;;;;;;;43.97;28.50;;;;;;;;;;5075697;28;20468;-66
2023/09/29 05:25:04;;;;;;;46.40;27.30;;;;;;;;;;5074486;28;20032;-65
2023/09/29 05:27:31;;;;;;;45.70;26.88;;;;;;;;;;5082936;28;20052;-66
2023/09/29 05:29:57;;;;;;;44.85;26.90;;;;;;;;;;5078643;28;20089;-66
2023/09/29 05:32:23;;;;;;;39.20;25.30;;;;;;;;;;5071518;28;20028;-65
2023/09/29 05:34:48;;;;;;;41.85;26.77;;;;;;;;;;5075488;28;20016;-66
2023/09/29 05:37:13;;;;;;;40.30;24.02;;;;;;;;;;5075136;28;20020;-66
2023/09/29 05:39:40;;;;;;;40.15;24.63;;;;;;;;;;5057208;28;20115;-66
2023/09/29 05:42:05;;;;;;;39.67;24.08;;;;;;;;;;5075610;28;20047;-71
2023/09/29 05:44:30;;;;;;;36.72;23.55;;;;;;;;;;5075825;28;20096;-71
2023/09/29 05:46:55;;;;;;;40.30;23.17;;;;;;;;;;5087225;28;20028;-71
2023/09/29 05:49:21;;;;;;;35.05;22.45;;;;;;;;;;5077991;28;20021;-71
2023/09/29 05:51:46;;;;;;;36.45;22.40;;;;;;;;;;5075286;28;20461;-71
2023/09/29 05:54:11;;;;;;;37.72;22.63;;;;;;;;;;5075263;28;20017;-71
2023/09/29 05:56:36;;;;;;;37.63;22.35;;;;;;;;;;5074720;28;20028;-71
2023/09/29 05:59:02;;;;;;;32.70;20.73;;;;;;;;;;5080349;28;20061;-71
2023/09/29 06:01:27;;;;;;;31.98;21.02;;;;;;;;;;5094514;28;20019;-71
2023/09/29 06:03:53;;;;;;;32.00;20.50;;;;;;;;;;5083253;28;20123;-72
2023/09/29 06:06:18;;;;;;;33.63;20.05;;;;;;;;;;5075222;28;20524;-72
2023/09/29 06:08:44;;;;;;;28.58;18.63;;;;;;;;;;5074928;28;20427;-73
2023/09/29 06:11:10;;;;;;;28.40;18.05;;;;;;;;;;5074939;28;20028;-70
2023/09/29 06:13:35;;;;;;;30.08;18.50;;;;;;;;;;5084311;28;20027;-69
2023/09/29 06:16:02;;;;;;;26.45;17.63;;;;;;;;;;5093335;28;20028;-70
2023/09/29 06:18:28;;;;;;;29.10;17.77;;;;;;;;;;5093374;28;20016;-71
2023/09/29 06:20:53;;;;;;;31.38;16.92;;;;;;;;;;5093857;28;20202;-70
2023/09/29 06:23:18;;;;;;;24.75;15.70;;;;;;;;;;5091287;28;20060;-70
2023/09/29 06:25:43;;;;;;;26.40;15.70;;;;;;;;;;5074486;28;20059;-70
2023/09/29 06:28:09;;;;;;;28.95;14.73;;;;;;;;;;5085372;28;20028;-70
2023/09/29 06:30:34;;;;;;;21.88;14.18;;;;;;;;;;5082497;28;20032;-70
2023/09/29 06:32:59;;;;;;;22.52;13.57;;;;;;;;;;5077905;28;20466;-70
2023/09/29 06:35:24;;;;;;;19.58;12.80;;;;;;;;;;5093737;28;20072;-71
2023/09/29 06:37:51;;;;;;;21.75;12.38;;;;;;;;;;5093337;28;20042;-71
2023/09/29 06:40:16;;;;;;;19.85;11.88;;;;;;;;;;5074490;28;20020;-71
2023/09/29 06:42:42;;;;;;;17.15;10.80;;;;;;;;;;5074229;28;20021;-70
2023/09/29 06:45:07;;;;;;;20.02;10.65;;;;;;;;;;5074793;28;20030;-71
2023/09/29 06:47:33;;;;;;;18.02;10.20;;;;;;;;;;5091290;28;20020;-71
2023/09/29 06:49:59;;;;;;;17.50;10.10;;;;;;;;;;5093168;28;20451;-72
2023/09/29 06:52:24;;;;;;;15.02;9.13;;;;;;;;;;5092981;28;20031;-65
2023/09/29 06:54:49;;;;;;;16.00;9.85;;;;;;;;;;5093202;28;20031;-66
2023/09/29 06:57:15;;;;;;;19.38;10.48;;;;;;;;;;5093226;28;20074;-65
2023/09/29 06:59:40;;;;;;;18.20;9.75;;;;;;;;;;5092763;28;20024;-65
2023/09/29 07:02:06;;;;;;;13.85;9.00;;;;;;;;;;5084237;28;20061;-65
2023/09/29 07:04:32;;;;;;;13.95;9.20;;;;;;;;;;5074506;28;20090;-66
2023/09/29 07:06:57;;;;;;;15.43;8.77;;;;;;;;;;5066651;28;20508;-65
2023/09/29 07:09:23;;;;;;;15.15;8.65;;;;;;;;;;5067417;28;20103;-66
2023/09/29 07:11:48;;;;;;;13.68;8.07;;;;;;;;;;5069408;28;20250;-66
2023/09/29 07:14:13;;;;;;;14.13;8.65;;;;;;;;;;5064059;28;20020;-68
2023/09/29 07:16:40;;;;;;;24.00;8.50;;;;;;;;;;5067153;28;20021;-66
2023/09/29 07:19:05;;;;;;;15.43;7.72;;;;;;;;;;5070764;28;20024;-66
2023/09/29 07:21:30;;;;;;;11.52;7.40;;;;;;;;;;5067684;28;20473;-65
2023/09/29 07:23:56;;;;;;;14.18;6.90;;;;;;;;;;5067308;28;20028;-65
2023/09/29 07:26:22;;;;;;;14.90;6.80;;;;;;;;;;5053438;28;20024;-66
2023/09/29 07:28:47;;;;;;;11.30;6.90;;;;;;;;;;5073283;28;20016;-65
2023/09/29 07:31:13;;;;;;;11.18;6.22;;;;;;;;;;5087917;28;20465;-65
2023/09/29 07:33:38;;;;;;;10.40;6.25;;;;;;;;;;5073583;28;20112;-66
2023/09/29 07:36:03;;;;;;;11.82;5.95;;;;;;;;;;5073664;28;20461;-65
2023/09/29 07:38:29;;;;;;;10.90;5.20;;;;;;;;;;5069953;28;20115;-66
2023/09/29 07:40:54;;;;;;;10.27;5.28;;;;;;;;;;5076129;28;20056;-66
2023/09/29 07:43:19;;;;;;;11.18;4.90;;;;;;;;;;5072850;28;20020;-66
2023/09/29 07:45:44;;;;;;;8.63;4.65;;;;;;;;;;5073479;28;20016;-66
2023/09/29 07:48:10;;;;;;;9.43;4.32;;;;;;;;;;5073328;28;20512;-66
2023/09/29 07:50:35;;;;;;;8.40;4.05;;;;;;;;;;5073667;28;20461;-65
2023/09/29 07:53:00;;;;;;;9.55;4.25;;;;;;;;;;5082804;28;20393;-66
2023/09/29 07:55:25;;;;;;;9.02;3.90;;;;;;;;;;5072960;28;20020;-66
2023/09/29 07:57:51;;;;;;;8.48;3.83;;;;;;;;;;5073129;28;20020;-66
2023/09/29 08:00:16;;;;;;;8.60;3.85;;;;;;;;;;5072733;28;20024;-65
2023/09/29 08:02:43;;;;;;;7.47;3.38;;;;;;;;;;5073173;28;20024;-66
2023/09/29 08:05:09;;;;;;;6.15;3.30;;;;;;;;;;5072934;28;20151;-65
2023/09/29 08:07:34;;;;;;;10.93;3.92;;;;;;;;;;5072927;28;20474;-66
2023/09/29 08:09:59;;;;;;;8.60;3.35;;;;;;;;;;5071204;28;20020;-65
2023/09/29 08:12:25;;;;;;;10.80;4.20;;;;;;;;;;5071010;28;20028;-66
2023/09/29 08:14:50;;;;;;;6.03;3.10;;;;;;;;;;5077325;28;20020;-72
2023/09/29 08:17:15;;;;;;;8.05;3.40;;;;;;;;;;5082678;28;20065;-72
2023/09/29 08:19:41;;;;;;;6.75;3.45;;;;;;;;;;5067193;28;20029;-72
2023/09/29 08:22:06;;;;;;;6.95;3.30;;;;;;;;;;5067776;28;20476;-72
2023/09/29 08:24:32;;;;;;;6.53;3.00;;;;;;;;;;5064392;28;20028;-71
2023/09/29 08:26:57;;;;;;;8.30;3.03;;;;;;;;;;5065371;28;20477;-70
2023/09/29 08:29:23;;;;;;;5.80;3.00;;;;;;;;;;5071781;28;20095;-71
2023/09/29 08:31:48;;;;;;;8.95;3.30;;;;;;;;;;5071738;28;20487;-71
2023/09/29 08:34:13;;;;;;;7.90;3.05;;;;;;;;;;5057037;28;20107;-71
2023/09/29 08:36:39;;;;;;;8.20;3.10;;;;;;;;;;5068651;28;20028;-71
2023/09/29 08:39:04;;;;;;;6.57;3.08;;;;;;;;;;5069402;28;20016;-71
2023/09/29 08:41:32;;;;;;;13.48;3.30;;;;;;;;;;5072921;28;20016;-71
2023/09/29 08:43:58;;;;;;;9.45;3.08;;;;;;;;;;5071163;28;20035;-71
2023/09/29 08:46:24;;;;;;;12.25;3.08;;;;;;;;;;5071021;28;20158;-70
2023/09/29 08:48:50;;;;;;;7.13;2.63;;;;;;;;;;5075334;28;20103;-70
2023/09/29 08:51:15;;;;;;;7.03;2.70;;;;;;;;;;5075696;28;20028;-71
2023/09/29 08:53:44;;;;;;;7.60;2.85;;;;;;;;;;5074968;28;20024;-71
2023/09/29 08:56:16;;;;;;;6.03;2.70;;;;;;;;;;5063882;28;20028;-71
2023/09/29 08:58:41;;;;;;;7.18;2.67;;;;;;;;;;5069008;28;20020;-71
2023/09/29 09:01:07;;;;;;;6.25;2.70;;;;;;;;;;5065107;28;20033;-71
2023/09/29 09:03:32;;;;;;;10.70;3.00;;;;;;;;;;5082250;28;20033;-70
2023/09/29 09:05:57;;;;;;;9.82;2.90;;;;;;;;;;5072701;28;20090;-71
2023/09/29 09:08:26;;;;;;;9.48;2.88;;;;;;;;;;5073348;28;20512;-71
2023/09/29 09:10:58;;;;;;;8.55;2.63;;;;;;;;;;5073463;28;20020;-71
2023/09/29 09:13:26;;;;;;;5.45;2.30;;;;;;;;;;5072344;28;20049;-72
2023/09/29 09:15:57;;;;;;;8.65;2.92;;;;;;;;;;5071926;28;20021;-71
2023/09/29 09:18:23;;;;;;;9.18;3.08;;;;;;;;;;5070693;28;20017;-71
2023/09/29 09:20:52;;;;;;;8.68;3.03;;;;;;;;;;5075461;28;20123;-71
2023/09/29 09:23:17;;;;;;;6.35;2.38;;;;;;;;;;5072434;28;20048;-71
2023/09/29 09:25:43;;;;;;;8.50;2.58;;;;;;;;;;5068452;28;20055;-70
2023/09/29 09:28:17;;;;;;;6.97;2.50;;;;;;;;;;5065799;28;20032;-71
2023/09/29 09:30:44;;;;;;;9.40;2.67;;;;;;;;;;5064347;28;20032;-70
2023/09/29 09:33:21;;;;;;;8.52;2.60;;;;;;;;;;5074133;28;20041;-72
2023/09/29 09:35:46;;;;;;;6.63;2.42;;;;;;;;;;5070405;28;20349;-72
2023/09/29 09:38:11;;;;;;;7.97;2.40;;;;;;;;;;5073258;28;20032;-72
2023/09/29 09:40:37;;;;;;;8.80;2.35;;;;;;;;;;5075439;28;20020;-72
2023/09/29 09:43:10;;;;;;;6.35;2.40;;;;;;;;;;5075341;28;20027;-72
2023/09/29 09:45:44;;;;;;;5.10;2.42;;;;;;;;;;5075806;28;20468;-73
2023/09/29 09:48:10;;;;;;;6.22;2.35;;;;;;;;;;5069053;28;20020;-72
2023/09/29 09:50:38;;;;;;;6.43;2.33;;;;;;;;;;5073024;28;20377;-73
2023/09/29 09:53:07;;;;;;;5.53;2.30;;;;;;;;;;5072649;28;20024;-74
2023/09/29 09:55:37;;;;;;;6.03;2.47;;;;;;;;;;5073483;28;20099;-72
2023/09/29 09:58:09;;;;;;;8.75;2.55;;;;;;;;;;5075155;28;20016;-73
2023/09/29 10:00:35;;;;;;;5.20;2.30;;;;;;;;;;5071868;28;20012;-72
2023/09/29 10:03:03;;;;;;;7.40;2.45;;;;;;;;;;5075102;28;20479;-72
2023/09/29 10:05:31;;;;;;;7.43;2.60;;;;;;;;;;5074960;28;20023;-73
2023/09/29 10:08:01;;;;;;;5.50;2.60;;;;;;;;;;5075162;28;20017;-72
2023/09/29 10:10:26;;;;;;;6.45;2.45;;;;;;;;;;5070494;28;20027;-72
2023/09/29 10:12:55;;;;;;;6.45;2.40;;;;;;;;;;5073066;28;20029;-73
2023/09/29 10:15:21;;;;;;;7.80;2.30;;;;;;;;;;5073329;28;20025;-73
2023/09/29 10:17:47;;;;;;;5.68;1.65;;;;;;;;;;5073008;28;20020;-72
2023/09/29 10:20:22;;;;;;;8.68;2.50;;;;;;;;;;5076964;28;20477;-74
2023/09/29 10:22:54;;;;;;;5.82;2.03;;;;;;;;;;5074471;28;20017;-72
2023/09/29 10:25:20;;;;;;;7.15;2.20;;;;;;;;;;5078983;28;20052;-73
2023/09/29 10:27:49;;;;;;;6.53;2.17;;;;;;;;;;5072045;28;20025;-71
2023/09/29 10:30:18;;;;;;;7.60;2.35;;;;;;;;;;5071150;28;20017;-72
2023/09/29 10:32:46;;;;;;;6.35;2.15;;;;;;;;;;5073061;28;20021;-69
2023/09/29 10:35:18;;;;;;;6.03;1.92;;;;;;;;;;5082071;28;20016;-72
2023/09/29 10:37:45;;;;;;;5.63;2.05;;;;;;;;;;5093622;28;20016;-73
2023/09/29 10:40:20;;;;;;;4.78;1.90;;;;;;;;;;5093478;28;20530;-73
2023/09/29 10:42:46;;;;;;;6.85;2.15;;;;;;;;;;5075123;28;20365;-71
2023/09/29 10:45:13;;;;;;;5.05;1.85;;;;;;;;;;5070349;28;21169;-72
2023/09/29 10:47:38;;;;;;;5.82;2.13;;;;;;;;;;5072347;28;20030;-71
2023/09/29 10:50:10;;;;;;;5.45;2.10;;;;;;;;;;5073724;28;20099;-71
2023/09/29 10:52:35;;;;;;;;;;;;;;;;;;5074491;28;20021;-71
2023/09/29 10:55:00;;;;;;;6.43;2.00;;;;;;;;;;5073865;28;20008;-69
2023/09/29 10:57:26;;;;;;;4.15;1.88;;;;;;;;;;5073782;28;20719;-71
2023/09/29 10:59:59;;;;;;;6.57;2.38;;;;;;;;;;5076172;28;20017;-70
2023/09/29 11:02:29;;;;;;;6.70;1.92;;;;;;;;;;5092557;28;20503;-71
2023/09/29 11:04:54;;;;;;;4.82;1.95;;;;;;;;;;5080625;28;20569;-71
2023/09/29 11:07:20;;;;;;;5.05;1.83;;;;;;;;;;5085825;28;20039;-71
2023/09/29 11:09:45;;;;;;;6.72;1.80;;;;;;;;;;5088556;28;20033;-71
2023/09/29 11:12:19;;;;;;;7.35;1.90;;;;;;;;;;5073877;28;20021;-71
2023/09/29 11:14:44;;;;;;;4.55;1.80;;;;;;;;;;5082600;28;20023;-72
2023/09/29 11:17:13;;;;;;;4.45;1.80;;;;;;;;;;5066141;28;20016;-71
2023/09/29 11:19:38;;;;;;;4.80;1.88;;;;;;;;;;5063438;28;20051;-71
2023/09/29 11:22:05;;;;;;;4.25;1.48;;;;;;;;;;5071304;28;20421;-70
2023/09/29 11:24:40;;;;;;;5.43;1.80;;;;;;;;;;5068770;28;20028;-70
2023/09/29 11:27:05;;;;;;;8.35;2.05;;;;;;;;;;5090475;28;20468;-70
2023/09/29 11:29:31;;;;;;;5.95;1.80;;;;;;;;;;5072807;28;20016;-70
2023/09/29 11:31:59;;;;;;;7.03;1.90;;;;;;;;;;5070509;28;20027;-71
2023/09/29 11:34:28;;;;;;;5.95;1.92;;;;;;;;;;5079971;28;20089;-71
2023/09/29 11:36:55;;;;;;;4.35;2.13;;;;;;;;;;5074656;28;20020;-66
2023/09/29 11:39:22;;;;;;;6.43;2.30;;;;;;;;;;5074900;28;20372;-65
2023/09/29 11:41:48;;;;;;;5.97;1.92;;;;;;;;;;5073816;28;20460;-67
2023/09/29 11:44:14;;;;;;;3.45;1.80;;;;;;;;;;5073297;28;20104;-65
2023/09/29 11:46:39;;;;;;;7.97;1.92;;;;;;;;;;5071980;28;20105;-66
2023/09/29 11:49:05;;;;;;;6.30;1.92;;;;;;;;;;5075396;28;20020;-66
2023/09/29 11:51:30;;;;;;;3.90;1.70;;;;;;;;;;5071658;28;20087;-68
2023/09/29 11:53:56;;;;;;;4.80;1.65;;;;;;;;;;5072521;28;20135;-71
2023/09/29 11:56:21;;;;;;;6.20;1.80;;;;;;;;;;5069348;28;20074;-72
2023/09/29 11:58:47;;;;;;;6.10;1.75;;;;;;;;;;5069619;28;20411;-72
2023/09/29 12:01:12;;;;;;;6.18;2.08;;;;;;;;;;5071161;28;20044;-70
2023/09/29 12:03:38;;;;;;;4.75;2.15;;;;;;;;;;5070962;28;20147;-70
2023/09/29 12:06:03;;;;;;;7.45;2.03;;;;;;;;;;5066562;28;20024;-72
2023/09/29 12:08:29;;;;;;;4.57;1.60;;;;;;;;;;5068029;28;20444;-71
2023/09/29 12:10:54;;;;;;;4.95;1.83;;;;;;;;;;5072502;28;20031;-70
2023/09/29 12:13:20;;;;;;;4.95;2.00;;;;;;;;;;5068869;28;20024;-70
2023/09/29 12:15:45;;;;;;;5.32;2.03;;;;;;;;;;5075523;28;20025;-71
2023/09/29 12:18:11;;;;;;;4.82;2.15;;;;;;;;;;5068972;28;20091;-71
2023/09/29 12:20:38;;;;;;;5.70;2.08;;;;;;;;;;5069824;28;20085;-70
2023/09/29 12:23:06;;;;;;;5.78;2.17;;;;;;;;;;5064112;28;20047;-70
2023/09/29 12:25:31;;;;;;;6.15;2.55;;;;;;;;;;5073483;28;20070;-71
2023/09/29 12:27:57;;;;;;;6.10;2.42;;;;;;;;;;5078047;28;20027;-71
2023/09/29 12:30:22;;;;;;;4.75;2.10;;;;;;;;;;5077276;28;20027;-70
2023/09/29 12:32:47;;;;;;;5.38;2.47;;;;;;;;;;5068860;28;20055;-70
2023/09/29 12:35:13;;;;;;;6.07;2.50;;;;;;;;;;5071549;28;20031;-70
2023/09/29 12:37:38;;;;;;;5.40;2.20;;;;;;;;;;5069036;28;20009;-70
2023/09/29 12:40:05;;;;;;;5.47;2.40;;;;;;;;;;5071683;28;20430;-70
2023/09/29 12:42:31;;;;;;;6.32;2.20;;;;;;;;;;5074559;28;20029;-71
2023/09/29 12:44:57;;;;;;;5.85;2.30;;;;;;;;;;5072669;28;20107;-70
2023/09/29 12:47:22;;;;;;;4.97;2.20;;;;;;;;;;5082833;28;20051;-70
2023/09/29 12:49:47;;;;;;;4.68;2.38;;;;;;;;;;5083397;28;20024;-70
2023/09/29 12:52:13;;;;;;;5.65;2.35;;;;;;;;;;5071968;28;20021;-71
2023/09/29 12:54:39;;;;;;;6.85;2.60;;;;;;;;;;5072326;28;20035;-70
2023/09/29 12:57:05;;;;;;;4.65;2.30;;;;;;;;;;5072663;28;20021;-72
2023/09/29 12:59:32;;;;;;;5.65;2.58;;;;;;;;;;5065309;28;20028;-71
2023/09/29 13:01:58;;;;;;;5.05;2.40;;;;;;;;;;5076859;28;20024;-72
2023/09/29 13:04:26;;;;;;;7.80;2.35;;;;;;;;;;5094993;28;20044;-67
2023/09/29 13:06:52;;;;;;;6.20;2.55;;;;;;;;;;5081468;28;20027;-68
2023/09/29 13:09:18;;;;;;;6.80;2.60;;;;;;;;;;5075795;28;20017;-67
2023/09/29 13:11:47;;;;;;;9.77;3.00;;;;;;;;;;5071515;28;20372;-68
2023/09/29 13:14:13;;;;;;;6.47;2.78;;;;;;;;;;5094811;28;20000;-69
2023/09/29 13:16:38;;;;;;;8.95;2.85;;;;;;;;;;5079984;28;20019;-67
2023/09/29 13:19:04;;;;;;;6.28;2.90;;;;;;;;;;5067151;28;20052;-66
2023/09/29 13:21:33;;;;;;;6.43;2.78;;;;;;;;;;5076478;28;20069;-66
2023/09/29 13:23:59;;;;;;;7.35;2.50;;;;;;;;;;5067448;28;20028;-66
2023/09/29 13:26:24;;;;;;;7.22;2.70;;;;;;;;;;5066806;28;20573;-66
2023/09/29 13:28:50;;;;;;;6.28;2.65;;;;;;;;;;5072775;28;20024;-66
2023/09/29 13:31:15;;;;;;;6.00;2.50;;;;;;;;;;5087834;28;20028;-66
2023/09/29 13:33:40;;;;;;;8.93;2.95;;;;;;;;;;5070055;28;20020;-68
2023/09/29 13:36:06;;;;;;;5.90;2.58;;;;;;;;;;5069831;28;20024;-65
2023/09/29 13:38:31;;;;;;;8.40;2.72;;;;;;;;;;5075906;28;20020;-65
2023/09/29 13:40:57;;;;;;;5.43;2.50;;;;;;;;;;5073786;28;20025;-65
2023/09/29 13:43:24;;;;;;;6.53;2.60;;;;;;;;;;5074977;28;20456;-66
2023/09/29 13:45:49;;;;;;;6.25;2.70;;;;;;;;;;5075303;28;20024;-65
2023/09/29 13:48:15;;;;;;;7.80;2.50;;;;;;;;;;5075086;28;20024;-66
2023/09/29 13:50:40;;;;;;;8.95;2.40;;;;;;;;;;5075077;28;20016;-67
2023/09/29 13:53:06;;;;;;;5.22;2.30;;;;;;;;;;5075558;28;20385;-67
2023/09/29 13:55:31;;;;;;;6.25;2.53;;;;;;;;;;5075325;28;20020;-66
2023/09/29 13:57:57;;;;;;;7.10;2.30;;;;;;;;;;5081416;28;20026;-71
2023/09/29 14:00:23;;;;;;;9.35;2.65;;;;;;;;;;5091377;28;20103;-66
2023/09/29 14:02:49;;;;;;;7.90;2.42;;;;;;;;;;5089944;28;20107;-66
2023/09/29 14:05:15;;;;;;;5.95;2.10;;;;;;;;;;5093717;28;20051;-67
2023/09/29 14:07:40;;;;;;;7.93;2.42;;;;;;;;;;5082038;28;20456;-67
2023/09/29 14:10:05;;;;;;;5.53;2.33;;;;;;;;;;5094078;28;20020;-67
2023/09/29 14:12:36;;;;;;;6.53;2.58;;;;;;;;;;5080594;28;20032;-72
2023/09/29 14:15:02;;;;;;;5.77;2.30;;;;;;;;;;5083411;28;20024;-72
2023/09/29 14:17:27;;;;;;;6.80;2.42;;;;;;;;;;5080739;28;20560;-71
2023/09/29 14:19:52;;;;;;;6.38;2.15;;;;;;;;;;5074499;28;20209;-72
2023/09/29 14:22:18;;;;;;;5.40;1.85;;;;;;;;;;5073018;28;20069;-71
2023/09/29 14:24:43;;;;;;;8.60;3.10;;;;;;;;;;5074016;28;20056;-71